sensor_id;sensor_type;location;lat;lon;timestamp;pressure;altitude;pressure_sealevel;temperature;humidity
44044;BME280;29709;52.396;16.796;2023-03-01T00:01:10;103222.42;;;-2.15;69.01
44044;BME280;29709;52.396;16.796;2023-03-01T00:04:24;103223.40;;;-2.19;70.07
44044;BME280;29709;52.396;16.796;2023-03-01T00:07:38;103216.89;;;-2.07;68.18
44044;BME280;29709;52.396;16.796;2023-03-01T00:11:16;103221.38;;;-2.06;68.25
44044;BME280;29709;52.396;16.796;2023-03-01T00:14:19;103223.18;;;-2.07;67.57
44044;BME280;29709;52.396;16.796;2023-03-01T00:17:32;103224.09;;;-2.08;68.40
44044;BME280;29709;52.396;16.796;2023-03-01T00:20:51;103217.79;;;-2.07;67.43
44044;BME280;29709;52.396;16.796;2023-03-01T00:24:05;103206.13;;;-2.09;67.44
44044;BME280;29709;52.396;16.796;2023-03-01T00:27:19;103204.34;;;-2.10;67.27
44044;BME280;29709;52.396;16.796;2023-03-01T00:30:32;103211.65;;;-2.15;67.69
44044;BME280;29709;52.396;16.796;2023-03-01T00:33:46;103205.34;;;-2.14;66.06
44044;BME280;29709;52.396;16.796;2023-03-01T00:37:00;103201.84;;;-2.19;67.21
44044;BME280;29709;52.396;16.796;2023-03-01T00:40:18;103199.09;;;-2.16;67.49
44044;BME280;29709;52.396;16.796;2023-03-01T00:43:31;103193.73;;;-2.17;67.15
44044;BME280;29709;52.396;16.796;2023-03-01T00:46:49;103193.84;;;-2.23;67.38
44044;BME280;29709;52.396;16.796;2023-03-01T00:50:03;103192.13;;;-2.27;66.69
44044;BME280;29709;52.396;16.796;2023-03-01T00:53:16;103189.43;;;-2.27;67.30
44044;BME280;29709;52.396;16.796;2023-03-01T00:56:30;103184.08;;;-2.29;66.20
44044;BME280;29709;52.396;16.796;2023-03-01T00:59:44;103180.51;;;-2.31;66.69
44044;BME280;29709;52.396;16.796;2023-03-01T01:02:57;103180.54;;;-2.33;67.74
44044;BME280;29709;52.396;16.796;2023-03-01T01:06:16;103180.56;;;-2.34;67.10
44044;BME280;29709;52.396;16.796;2023-03-01T01:09:29;103180.79;;;-2.46;67.71
44044;BME280;29709;52.396;16.796;2023-03-01T01:12:46;103174.52;;;-2.47;68.32
44044;BME280;29709;52.396;16.796;2023-03-01T01:16:03;103171.79;;;-2.45;67.38
44044;BME280;29709;52.396;16.796;2023-03-01T01:19:16;103169.32;;;-2.57;68.07
44044;BME280;29709;52.396;16.796;2023-03-01T01:22:30;103167.45;;;-2.54;67.21
44044;BME280;29709;52.396;16.796;2023-03-01T01:25:43;103171.02;;;-2.53;67.99
44044;BME280;29709;52.396;16.796;2023-03-01T01:28:57;103168.27;;;-2.49;68.64
44044;BME280;29709;52.396;16.796;2023-03-01T01:32:11;103170.16;;;-2.55;66.82
44044;BME280;29709;52.396;16.796;2023-03-01T01:35:24;103172.96;;;-2.62;69.52
44044;BME280;29709;52.396;16.796;2023-03-01T01:38:39;103173.81;;;-2.58;68.11
44044;BME280;29709;52.396;16.796;2023-03-01T01:41:52;103166.56;;;-2.54;68.19
44044;BME280;29709;52.396;16.796;2023-03-01T01:55:26;103171.33;;;-2.72;67.18
44044;BME280;29709;52.396;16.796;2023-03-01T01:58:41;103161.51;;;-2.74;67.76
44044;BME280;29709;52.396;16.796;2023-03-01T02:01:59;103159.74;;;-2.75;67.71
44044;BME280;29709;52.396;16.796;2023-03-01T02:08:40;103157.14;;;-2.80;68.36
44044;BME280;29709;52.396;16.796;2023-03-01T02:11:55;103156.13;;;-2.74;68.09
44044;BME280;29709;52.396;16.796;2023-03-01T02:15:09;103148.02;;;-2.73;66.07
44044;BME280;29709;52.396;16.796;2023-03-01T02:18:24;103133.84;;;-2.81;67.52
44044;BME280;29709;52.396;16.796;2023-03-01T02:28:36;103107.69;;;-2.74;67.75
44044;BME280;29709;52.396;16.796;2023-03-01T02:31:52;103116.80;;;-2.83;67.96
44044;BME280;29709;52.396;16.796;2023-03-01T02:35:12;103111.55;;;-2.89;68.61
44044;BME280;29709;52.396;16.796;2023-03-01T02:38:26;103113.20;;;-2.82;67.53
44044;BME280;29709;52.396;16.796;2023-03-01T02:41:44;103101.56;;;-2.84;67.71
44044;BME280;29709;52.396;16.796;2023-03-01T02:44:59;103101.63;;;-2.87;67.73
44044;BME280;29709;52.396;16.796;2023-03-01T02:48:12;103099.93;;;-2.93;66.96
44044;BME280;29709;52.396;16.796;2023-03-01T02:51:34;103098.09;;;-2.89;66.61
44044;BME280;29709;52.396;16.796;2023-03-01T02:58:17;103090.25;;;-3.04;67.41
44044;BME280;29709;52.396;16.796;2023-03-01T03:01:30;103112.70;;;-3.05;67.43
44044;BME280;29709;52.396;16.796;2023-03-01T03:04:50;103107.25;;;-3.02;66.59
44044;BME280;29709;52.396;16.796;2023-03-01T03:08:04;103101.04;;;-3.06;67.16
44044;BME280;29709;52.396;16.796;2023-03-01T03:11:18;103090.38;;;-3.10;67.34
44044;BME280;29709;52.396;16.796;2023-03-01T03:14:31;103095.79;;;-3.12;67.54
44044;BME280;29709;52.396;16.796;2023-03-01T03:17:48;103070.05;;;-3.30;67.54
44044;BME280;29709;52.396;16.796;2023-03-01T03:21:02;103098.44;;;-3.10;68.24
44044;BME280;29709;52.396;16.796;2023-03-01T03:24:16;103083.07;;;-3.04;66.10
44044;BME280;29709;52.396;16.796;2023-03-01T03:27:31;103084.14;;;-3.12;66.77
44044;BME280;29709;52.396;16.796;2023-03-01T03:30:45;103084.25;;;-3.20;66.34
44044;BME280;29709;52.396;16.796;2023-03-01T03:33:59;103085.30;;;-3.30;66.97
44044;BME280;29709;52.396;16.796;2023-03-01T03:37:13;103083.47;;;-3.28;67.35
44044;BME280;29709;52.396;16.796;2023-03-01T03:40:42;103084.30;;;-3.25;67.56
44044;BME280;29709;52.396;16.796;2023-03-01T03:43:56;103079.80;;;-3.21;66.46
44044;BME280;29709;52.396;16.796;2023-03-01T03:47:09;103088.83;;;-3.27;66.88
44044;BME280;29709;52.396;16.796;2023-03-01T03:50:23;103094.23;;;-3.28;67.21
44044;BME280;29709;52.396;16.796;2023-03-01T03:53:36;103096.98;;;-3.31;67.63
44044;BME280;29709;52.396;16.796;2023-03-01T03:56:50;103093.31;;;-3.27;66.55
44044;BME280;29709;52.396;16.796;2023-03-01T04:00:07;103084.42;;;-3.31;66.77
44044;BME280;29709;52.396;16.796;2023-03-01T04:03:27;103088.05;;;-3.35;67.19
44044;BME280;29709;52.396;16.796;2023-03-01T04:06:40;103084.47;;;-3.35;67.35
44044;BME280;29709;52.396;16.796;2023-03-01T04:09:54;103079.04;;;-3.31;66.80
44044;BME280;29709;52.396;16.796;2023-03-01T04:13:11;103082.66;;;-3.32;67.45
44044;BME280;29709;52.396;16.796;2023-03-01T04:16:25;103076.35;;;-3.31;67.20
44044;BME280;29709;52.396;16.796;2023-03-01T04:19:39;103078.19;;;-3.33;66.78
44044;BME280;29709;52.396;16.796;2023-03-01T04:23:01;103070.12;;;-3.33;66.99
44044;BME280;29709;52.396;16.796;2023-03-01T04:26:23;103077.19;;;-3.27;67.06
44044;BME280;29709;52.396;16.796;2023-03-01T04:29:37;103077.30;;;-3.33;66.95
44044;BME280;29709;52.396;16.796;2023-03-01T04:32:50;103071.03;;;-3.35;67.37
44044;BME280;29709;52.396;16.796;2023-03-01T04:36:04;103075.55;;;-3.37;67.32
44044;BME280;29709;52.396;16.796;2023-03-01T04:39:21;103078.23;;;-3.37;67.39
44044;BME280;29709;52.396;16.796;2023-03-01T04:42:35;103075.50;;;-3.33;65.98
44044;BME280;29709;52.396;16.796;2023-03-01T04:45:49;103080.02;;;-3.36;67.04
44044;BME280;29709;52.396;16.796;2023-03-01T04:49:03;103079.10;;;-3.35;67.35
44044;BME280;29709;52.396;16.796;2023-03-01T04:52:18;103082.68;;;-3.35;67.34
44044;BME280;29709;52.396;16.796;2023-03-01T04:55:31;103079.95;;;-3.32;67.80
44044;BME280;29709;52.396;16.796;2023-03-01T04:58:45;103076.32;;;-3.29;67.47
44044;BME280;29709;52.396;16.796;2023-03-01T05:01:59;103063.69;;;-3.24;67.22
44044;BME280;29709;52.396;16.796;2023-03-01T05:05:13;103070.92;;;-3.28;66.73
44044;BME280;29709;52.396;16.796;2023-03-01T05:08:27;103068.23;;;-3.28;66.44
44044;BME280;29709;52.396;16.796;2023-03-01T05:11:40;103071.01;;;-3.32;68.10
44044;BME280;29709;52.396;16.796;2023-03-01T05:14:54;103071.89;;;-3.32;66.03
44044;BME280;29709;52.396;16.796;2023-03-01T05:18:07;103069.32;;;-3.39;66.92
44044;BME280;29709;52.396;16.796;2023-03-01T05:21:24;103069.29;;;-3.38;66.78
44044;BME280;29709;52.396;16.796;2023-03-01T05:24:38;103071.14;;;-3.41;67.49
44044;BME280;29709;52.396;16.796;2023-03-01T05:27:51;103065.73;;;-3.40;66.55
44044;BME280;29709;52.396;16.796;2023-03-01T05:31:06;103068.41;;;-3.38;66.78
44044;BME280;29709;52.396;16.796;2023-03-01T05:34:30;103076.58;;;-3.46;67.87
44044;BME280;29709;52.396;16.796;2023-03-01T05:37:45;103080.90;;;-3.36;68.14
44044;BME280;29709;52.396;16.796;2023-03-01T05:40:59;103074.59;;;-3.35;67.49
44044;BME280;29709;52.396;16.796;2023-03-01T05:44:13;103083.68;;;-3.40;67.26
44044;BME280;29709;52.396;16.796;2023-03-01T05:47:27;103087.22;;;-3.38;67.15
44044;BME280;29709;52.396;16.796;2023-03-01T05:50:44;103082.68;;;-3.35;67.18
44044;BME280;29709;52.396;16.796;2023-03-01T05:53:58;103085.44;;;-3.39;67.42
44044;BME280;29709;52.396;16.796;2023-03-01T05:57:11;103082.68;;;-3.35;67.78
44044;BME280;29709;52.396;16.796;2023-03-01T06:00:25;103090.72;;;-3.32;67.32
44044;BME280;29709;52.396;16.796;2023-03-01T06:03:39;103084.36;;;-3.28;67.04
44044;BME280;29709;52.396;16.796;2023-03-01T06:06:52;103073.57;;;-3.26;66.95
44044;BME280;29709;52.396;16.796;2023-03-01T06:10:08;103071.66;;;-3.18;67.43
44044;BME280;29709;52.396;16.796;2023-03-01T06:13:23;103065.22;;;-3.08;67.52
44044;BME280;29709;52.396;16.796;2023-03-01T06:16:36;103062.32;;;-2.96;67.63
44044;BME280;29709;52.396;16.796;2023-03-01T06:19:50;103063.95;;;-2.87;68.00
44044;BME280;29709;52.396;16.796;2023-03-01T06:23:03;103062.06;;;-2.82;68.09
44044;BME280;29709;52.396;16.796;2023-03-01T06:26:17;103067.23;;;-2.68;68.43
44044;BME280;29709;52.396;16.796;2023-03-01T06:29:31;103069.36;;;-2.41;69.22
44044;BME280;29709;52.396;16.796;2023-03-01T06:32:45;103062.44;;;-2.08;68.60
44044;BME280;29709;52.396;16.796;2023-03-01T06:35:58;103054.49;;;-1.73;67.33
44044;BME280;29709;52.396;16.796;2023-03-01T06:39:11;103060.07;;;-1.42;67.08
44044;BME280;29709;52.396;16.796;2023-03-01T06:42:25;103058.50;;;-1.16;66.83
44044;BME280;29709;52.396;16.796;2023-03-01T06:45:38;103046.13;;;-0.89;67.72
44044;BME280;29709;52.396;16.796;2023-03-01T06:48:52;103041.84;;;-0.63;67.11
44044;BME280;29709;52.396;16.796;2023-03-01T06:52:05;103045.01;;;-0.47;66.94
44044;BME280;29709;52.396;16.796;2023-03-01T06:55:19;103042.90;;;-0.36;66.77
44044;BME280;29709;52.396;16.796;2023-03-01T06:58:33;103038.02;;;-0.23;67.31
44044;BME280;29709;52.396;16.796;2023-03-01T07:01:46;103040.14;;;-0.04;67.71
44044;BME280;29709;52.396;16.796;2023-03-01T07:05:00;103042.80;;;0.27;67.86
44044;BME280;29709;52.396;16.796;2023-03-01T07:08:15;103050.52;;;0.40;66.65
44044;BME280;29709;52.396;16.796;2023-03-01T07:11:29;103042.19;;;0.47;66.90
44044;BME280;29709;52.396;16.796;2023-03-01T07:14:43;103051.77;;;0.57;66.81
44044;BME280;29709;52.396;16.796;2023-03-01T07:17:57;103052.30;;;0.69;66.43
44044;BME280;29709;52.396;16.796;2023-03-01T07:21:12;103053.84;;;0.77;66.33
44044;BME280;29709;52.396;16.796;2023-03-01T07:24:26;103046.36;;;0.85;66.59
44044;BME280;29709;52.396;16.796;2023-03-01T07:27:40;103059.59;;;0.95;67.06
44044;BME280;29709;52.396;16.796;2023-03-01T07:30:54;103061.30;;;0.97;66.49
44044;BME280;29709;52.396;16.796;2023-03-01T07:34:07;103055.53;;;1.08;66.80
44044;BME280;29709;52.396;16.796;2023-03-01T07:37:21;103060.27;;;1.28;67.08
44044;BME280;29709;52.396;16.796;2023-03-01T07:40:34;103062.35;;;1.44;67.04
44044;BME280;29709;52.396;16.796;2023-03-01T07:43:48;103056.34;;;1.61;66.55
44044;BME280;29709;52.396;16.796;2023-03-01T07:47:03;103053.03;;;1.78;66.41
44044;BME280;29709;52.396;16.796;2023-03-01T07:50:17;103056.70;;;2.00;66.15
44044;BME280;29709;52.396;16.796;2023-03-01T07:53:31;103064.97;;;2.21;65.57
44044;BME280;29709;52.396;16.796;2023-03-01T07:56:46;103064.28;;;2.38;65.03
44044;BME280;29709;52.396;16.796;2023-03-01T08:00:00;103058.38;;;2.50;64.91
44044;BME280;29709;52.396;16.796;2023-03-01T08:03:13;103063.95;;;2.69;64.49
44044;BME280;29709;52.396;16.796;2023-03-01T08:06:27;103064.28;;;2.83;64.03
44044;BME280;29709;52.396;16.796;2023-03-01T08:09:40;103066.63;;;2.92;63.49
44044;BME280;29709;52.396;16.796;2023-03-01T08:12:54;103056.30;;;3.00;62.93
44044;BME280;29709;52.396;16.796;2023-03-01T08:16:11;103062.94;;;3.15;63.49
44044;BME280;29709;52.396;16.796;2023-03-01T08:19:25;103044.35;;;3.26;62.55
44044;BME280;29709;52.396;16.796;2023-03-01T08:22:41;103055.70;;;3.36;62.02
44044;BME280;29709;52.396;16.796;2023-03-01T08:25:54;103046.72;;;3.54;63.20
44044;BME280;29709;52.396;16.796;2023-03-01T08:29:08;103044.75;;;3.58;62.67
44044;BME280;29709;52.396;16.796;2023-03-01T08:32:21;103047.59;;;3.75;61.83
44044;BME280;29709;52.396;16.796;2023-03-01T08:35:35;103046.68;;;3.95;62.41
44044;BME280;29709;52.396;16.796;2023-03-01T08:38:48;103051.58;;;4.07;61.50
44044;BME280;29709;52.396;16.796;2023-03-01T08:42:02;103049.87;;;4.23;61.62
44044;BME280;29709;52.396;16.796;2023-03-01T08:45:16;103050.18;;;4.36;61.12
44044;BME280;29709;52.396;16.796;2023-03-01T08:48:31;103041.81;;;4.41;60.81
44044;BME280;29709;52.396;16.796;2023-03-01T08:51:45;103044.81;;;4.53;60.25
44044;BME280;29709;52.396;16.796;2023-03-01T08:54:59;103033.83;;;4.74;59.91
44044;BME280;29709;52.396;16.796;2023-03-01T08:58:14;103033.20;;;4.86;61.11
44044;BME280;29709;52.396;16.796;2023-03-01T09:01:28;103034.59;;;4.95;60.66
44044;BME280;29709;52.396;16.796;2023-03-01T09:04:42;103029.47;;;5.06;58.20
44044;BME280;29709;52.396;16.796;2023-03-01T09:07:57;103020.45;;;5.23;59.06
44044;BME280;29709;52.396;16.796;2023-03-01T09:11:12;103023.70;;;5.29;57.30
44044;BME280;29709;52.396;16.796;2023-03-01T09:14:27;103014.83;;;5.43;56.58
44044;BME280;29709;52.396;16.796;2023-03-01T09:17:40;103007.48;;;5.61;58.47
44044;BME280;29709;52.396;16.796;2023-03-01T09:24:23;103000.26;;;5.77;56.83
44044;BME280;29709;52.396;16.796;2023-03-01T09:27:37;103002.98;;;5.94;55.50
44044;BME280;29709;52.396;16.796;2023-03-01T09:30:50;103010.22;;;6.11;55.88
44044;BME280;29709;52.396;16.796;2023-03-01T09:34:04;103010.91;;;6.15;53.15
44044;BME280;29709;52.396;16.796;2023-03-01T09:37:18;103014.89;;;6.25;54.32
44044;BME280;29709;52.396;16.796;2023-03-01T09:40:32;103010.25;;;6.27;53.62
44044;BME280;29709;52.396;16.796;2023-03-01T09:43:56;103019.32;;;6.27;53.74
44044;BME280;29709;52.396;16.796;2023-03-01T09:47:18;103013.22;;;6.22;52.50
44044;BME280;29709;52.396;16.796;2023-03-01T09:50:35;103009.24;;;6.12;51.21
44044;BME280;29709;52.396;16.796;2023-03-01T09:53:51;103000.48;;;6.39;53.73
44044;BME280;29709;52.396;16.796;2023-03-01T10:00:41;103005.59;;;6.60;51.52
44044;BME280;29709;52.396;16.796;2023-03-01T10:04:06;103008.51;;;6.57;49.58
44044;BME280;29709;52.396;16.796;2023-03-01T10:10:49;103001.62;;;6.50;50.75
44044;BME280;29709;52.396;16.796;2023-03-01T10:17:37;103008.13;;;6.79;51.14
44044;BME280;29709;52.396;16.796;2023-03-01T10:21:01;102999.70;;;6.98;51.16
44044;BME280;29709;52.396;16.796;2023-03-01T10:24:18;102994.53;;;6.93;49.96
44044;BME280;29709;52.396;16.796;2023-03-01T10:31:02;102988.73;;;7.14;49.06
44044;BME280;29709;52.396;16.796;2023-03-01T10:34:26;102997.40;;;7.36;50.27
44044;BME280;29709;52.396;16.796;2023-03-01T10:37:46;102988.93;;;7.41;49.53
44044;BME280;29709;52.396;16.796;2023-03-01T10:41:05;102982.85;;;7.50;49.58
44044;BME280;29709;52.396;16.796;2023-03-01T10:47:45;102969.01;;;7.53;49.04
44044;BME280;29709;52.396;16.796;2023-03-01T10:51:04;102964.99;;;7.59;50.65
44044;BME280;29709;52.396;16.796;2023-03-01T10:54:23;102968.73;;;7.72;50.68
44044;BME280;29709;52.396;16.796;2023-03-01T10:57:39;102968.02;;;7.68;50.60
44044;BME280;29709;52.396;16.796;2023-03-01T11:01:01;102962.37;;;7.71;50.07
44044;BME280;29709;52.396;16.796;2023-03-01T11:04:15;102964.52;;;7.66;49.29
44044;BME280;29709;52.396;16.796;2023-03-01T11:07:30;102956.20;;;7.68;49.86
44044;BME280;29709;52.396;16.796;2023-03-01T11:10:43;102952.78;;;7.78;49.34
44044;BME280;29709;52.396;16.796;2023-03-01T11:14:06;102956.41;;;7.93;49.11
44044;BME280;29709;52.396;16.796;2023-03-01T11:17:28;102946.31;;;8.08;49.18
44044;BME280;29709;52.396;16.796;2023-03-01T11:20:42;102941.39;;;8.27;48.75
44044;BME280;29709;52.396;16.796;2023-03-01T11:23:58;102938.49;;;8.16;49.31
44044;BME280;29709;52.396;16.796;2023-03-01T11:28:04;102927.80;;;8.26;49.57
44044;BME280;29709;52.396;16.796;2023-03-01T11:30:44;102930.73;;;8.23;49.37
44044;BME280;29709;52.396;16.796;2023-03-01T11:34:09;102925.06;;;8.26;47.90
44044;BME280;29709;52.396;16.796;2023-03-01T11:44:23;102915.70;;;8.57;48.78
44044;BME280;29709;52.396;16.796;2023-03-01T11:51:08;102907.45;;;8.44;48.92
44044;BME280;29709;52.396;16.796;2023-03-01T12:04:53;102905.79;;;8.27;49.26
44044;BME280;29709;52.396;16.796;2023-03-01T12:11:51;102899.16;;;8.17;49.86
44044;BME280;29709;52.396;16.796;2023-03-01T12:22:06;102884.52;;;8.31;50.08
44044;BME280;29709;52.396;16.796;2023-03-01T12:25:33;102880.03;;;8.30;50.28
44044;BME280;29709;52.396;16.796;2023-03-01T12:35:57;102866.64;;;8.39;50.62
44044;BME280;29709;52.396;16.796;2023-03-01T12:39:18;102860.06;;;8.42;50.88
44044;BME280;29709;52.396;16.796;2023-03-01T12:46:10;102852.05;;;8.39;51.04
44044;BME280;29709;52.396;16.796;2023-03-01T12:52:56;102847.81;;;8.48;51.13
44044;BME280;29709;52.396;16.796;2023-03-01T12:56:16;102851.67;;;8.58;50.83
44044;BME280;29709;52.396;16.796;2023-03-01T12:59:47;102845.81;;;8.37;50.91
44044;BME280;29709;52.396;16.796;2023-03-01T13:13:24;102848.50;;;8.64;51.54
44044;BME280;29709;52.396;16.796;2023-03-01T13:16:41;102839.48;;;8.49;51.44
44044;BME280;29709;52.396;16.796;2023-03-01T13:20:01;102838.52;;;8.63;52.13
44044;BME280;29709;52.396;16.796;2023-03-01T13:23:26;102834.27;;;8.72;52.13
44044;BME280;29709;52.396;16.796;2023-03-01T13:30:38;102820.27;;;8.76;52.22
44044;BME280;29709;52.396;16.796;2023-03-01T13:33:37;102819.92;;;8.81;51.96
44044;BME280;29709;52.396;16.796;2023-03-01T13:36:53;102818.62;;;8.86;52.00
44044;BME280;29709;52.396;16.796;2023-03-01T13:43:38;102810.41;;;8.99;51.69
44044;BME280;29709;52.396;16.796;2023-03-01T13:46:59;102807.53;;;9.13;51.72
44044;BME280;29709;52.396;16.796;2023-03-01T13:50:25;102800.84;;;9.05;50.76
44044;BME280;29709;52.396;16.796;2023-03-01T13:55:48;102798.98;;;8.92;50.99
44044;BME280;29709;52.396;16.796;2023-03-01T13:59:12;102801.72;;;8.92;51.63
44044;BME280;29709;52.396;16.796;2023-03-01T14:02:25;102800.20;;;9.01;51.39
44044;BME280;29709;52.396;16.796;2023-03-01T14:05:40;102796.35;;;8.91;51.21
44044;BME280;29709;52.396;16.796;2023-03-01T14:19:19;102796.77;;;8.72;51.80
44044;BME280;29709;52.396;16.796;2023-03-01T14:22:41;102802.37;;;8.71;51.77
44044;BME280;29709;52.396;16.796;2023-03-01T14:25:57;102791.05;;;8.75;51.82
44044;BME280;29709;52.396;16.796;2023-03-01T14:32:36;102796.23;;;8.67;51.44
44044;BME280;29709;52.396;16.796;2023-03-01T14:39:24;102772.20;;;8.58;51.73
44044;BME280;29709;52.396;16.796;2023-03-01T14:42:39;102769.68;;;8.55;52.03
44044;BME280;29709;52.396;16.796;2023-03-01T14:45:53;102775.35;;;8.52;51.95
44044;BME280;29709;52.396;16.796;2023-03-01T14:49:11;102778.09;;;8.52;51.73
44044;BME280;29709;52.396;16.796;2023-03-01T14:56:01;102777.95;;;8.41;52.05
44044;BME280;29709;52.396;16.796;2023-03-01T14:59:23;102772.37;;;8.42;52.45
44044;BME280;29709;52.396;16.796;2023-03-01T15:02:37;102767.88;;;8.41;52.41
44044;BME280;29709;52.396;16.796;2023-03-01T15:05:52;102765.47;;;8.36;51.97
44044;BME280;29709;52.396;16.796;2023-03-01T15:09:12;102770.18;;;8.34;52.50
44044;BME280;29709;52.396;16.796;2023-03-01T15:12:38;102761.35;;;8.29;51.99
44044;BME280;29709;52.396;16.796;2023-03-01T15:16:01;102762.13;;;8.31;52.40
44044;BME280;29709;52.396;16.796;2023-03-01T15:19:18;102765.47;;;8.36;52.41
44044;BME280;29709;52.396;16.796;2023-03-01T15:22:32;102759.50;;;8.30;52.37
44044;BME280;29709;52.396;16.796;2023-03-01T15:25:46;102759.05;;;8.23;52.51
44044;BME280;29709;52.396;16.796;2023-03-01T15:29:00;102760.34;;;8.18;52.46
44044;BME280;29709;52.396;16.796;2023-03-01T15:35:43;102760.85;;;8.10;52.92
44044;BME280;29709;52.396;16.796;2023-03-01T15:39:01;102759.44;;;8.04;53.15
44044;BME280;29709;52.396;16.796;2023-03-01T15:45:40;102750.45;;;8.02;53.29
44044;BME280;29709;52.396;16.796;2023-03-01T15:48:56;102750.63;;;7.99;53.06
44044;BME280;29709;52.396;16.796;2023-03-01T15:52:19;102751.06;;;7.93;53.30
44044;BME280;29709;52.396;16.796;2023-03-01T15:55:34;102755.95;;;7.88;53.43
44044;BME280;29709;52.396;16.796;2023-03-01T15:58:47;102753.22;;;7.88;53.79
44044;BME280;29709;52.396;16.796;2023-03-01T16:02:01;102759.79;;;7.86;53.69
44044;BME280;29709;52.396;16.796;2023-03-01T16:05:24;102753.54;;;7.84;53.97
44044;BME280;29709;52.396;16.796;2023-03-01T16:08:38;102755.59;;;7.80;53.95
44044;BME280;29709;52.396;16.796;2023-03-01T16:11:54;102749.23;;;7.79;54.41
44044;BME280;29709;52.396;16.796;2023-03-01T16:18:32;102747.17;;;7.56;55.38
44044;BME280;29709;52.396;16.796;2023-03-01T16:21:46;102747.09;;;7.43;55.41
44044;BME280;29709;52.396;16.796;2023-03-01T16:25:03;102748.09;;;7.28;56.31
44044;BME280;29709;52.396;16.796;2023-03-01T16:28:16;102745.77;;;7.22;56.69
44044;BME280;29709;52.396;16.796;2023-03-01T16:31:30;102741.86;;;7.12;57.51
44044;BME280;29709;52.396;16.796;2023-03-01T16:34:44;102739.99;;;6.98;57.66
44044;BME280;29709;52.396;16.796;2023-03-01T16:37:59;102734.84;;;6.79;57.54
44044;BME280;29709;52.396;16.796;2023-03-01T16:41:15;102730.14;;;6.67;57.86
44044;BME280;29709;52.396;16.796;2023-03-01T16:44:29;102731.59;;;6.58;57.51
44044;BME280;29709;52.396;16.796;2023-03-01T16:47:43;102735.96;;;6.47;57.97
44044;BME280;29709;52.396;16.796;2023-03-01T16:51:00;102735.56;;;6.39;57.53
44044;BME280;29709;52.396;16.796;2023-03-01T16:54:14;102734.29;;;6.14;57.97
44044;BME280;29709;52.396;16.796;2023-03-01T16:57:28;102732.85;;;5.93;59.19
44044;BME280;29709;52.396;16.796;2023-03-01T17:00:41;102733.20;;;5.87;59.66
44044;BME280;29709;52.396;16.796;2023-03-01T17:03:55;102731.01;;;5.77;59.19
44044;BME280;29709;52.396;16.796;2023-03-01T17:07:08;102730.23;;;5.60;59.89
44044;BME280;29709;52.396;16.796;2023-03-01T17:10:22;102741.31;;;5.41;60.53
44044;BME280;29709;52.396;16.796;2023-03-01T17:13:37;102741.39;;;5.39;60.38
44044;BME280;29709;52.396;16.796;2023-03-01T17:16:51;102746.35;;;5.33;60.09
44044;BME280;29709;52.396;16.796;2023-03-01T17:20:06;102744.27;;;5.20;61.15
44044;BME280;29709;52.396;16.796;2023-03-01T17:23:20;102749.40;;;5.11;60.56
44044;BME280;29709;52.396;16.796;2023-03-01T17:26:34;102740.04;;;4.99;60.83
44044;BME280;29709;52.396;16.796;2023-03-01T17:29:47;102732.91;;;4.97;61.06
44044;BME280;29709;52.396;16.796;2023-03-01T17:33:01;102735.35;;;4.85;60.57
44044;BME280;29709;52.396;16.796;2023-03-01T17:36:15;102736.27;;;4.69;59.87
44044;BME280;29709;52.396;16.796;2023-03-01T17:39:29;102744.38;;;4.53;61.82
44044;BME280;29709;52.396;16.796;2023-03-01T17:42:48;102745.84;;;4.43;62.68
44044;BME280;29709;52.396;16.796;2023-03-01T17:46:01;102740.39;;;4.43;62.70
44044;BME280;29709;52.396;16.796;2023-03-01T17:49:15;102738.80;;;4.39;62.27
44044;BME280;29709;52.396;16.796;2023-03-01T17:52:30;102739.73;;;4.38;61.51
44044;BME280;29709;52.396;16.796;2023-03-01T17:55:44;102741.26;;;4.26;60.92
44044;BME280;29709;52.396;16.796;2023-03-01T17:58:58;102740.41;;;4.08;62.40
44044;BME280;29709;52.396;16.796;2023-03-01T18:02:11;102747.20;;;3.99;63.16
44044;BME280;29709;52.396;16.796;2023-03-01T18:05:25;102741.09;;;3.94;63.14
44044;BME280;29709;52.396;16.796;2023-03-01T18:08:39;102736.78;;;3.90;63.87
44044;BME280;29709;52.396;16.796;2023-03-01T18:11:53;102738.83;;;3.85;63.29
44044;BME280;29709;52.396;16.796;2023-03-01T18:15:08;102741.80;;;3.81;63.60
44044;BME280;29709;52.396;16.796;2023-03-01T18:18:22;102743.23;;;3.70;63.44
44044;BME280;29709;52.396;16.796;2023-03-01T18:21:40;102740.95;;;3.61;64.38
44044;BME280;29709;52.396;16.796;2023-03-01T18:24:59;102742.88;;;3.59;63.86
44044;BME280;29709;52.396;16.796;2023-03-01T18:28:14;102741.99;;;3.59;64.44
44044;BME280;29709;52.396;16.796;2023-03-01T18:31:31;102731.49;;;3.51;64.24
44044;BME280;29709;52.396;16.796;2023-03-01T18:34:45;102733.57;;;3.46;63.53
44044;BME280;29709;52.396;16.796;2023-03-01T18:38:00;102736.59;;;3.40;64.01
44044;BME280;29709;52.396;16.796;2023-03-01T18:41:15;102739.54;;;3.35;64.19
44044;BME280;29709;52.396;16.796;2023-03-01T18:44:28;102735.42;;;3.27;64.00
44044;BME280;29709;52.396;16.796;2023-03-01T18:47:42;102732.62;;;3.09;64.83
44044;BME280;29709;52.396;16.796;2023-03-01T18:50:56;102736.45;;;3.05;65.48
44044;BME280;29709;52.396;16.796;2023-03-01T18:54:11;102742.15;;;2.99;64.83
44044;BME280;29709;52.396;16.796;2023-03-01T18:57:25;102738.63;;;2.97;65.26
44044;BME280;29709;52.396;16.796;2023-03-01T19:00:38;102745.37;;;2.88;65.40
44044;BME280;29709;52.396;16.796;2023-03-01T19:03:53;102753.82;;;2.82;66.86
44044;BME280;29709;52.396;16.796;2023-03-01T19:07:08;102754.82;;;2.80;66.16
44044;BME280;29709;52.396;16.796;2023-03-01T19:10:22;102745.14;;;2.74;66.27
44044;BME280;29709;52.396;16.796;2023-03-01T19:13:38;102748.13;;;2.68;66.75
44044;BME280;29709;52.396;16.796;2023-03-01T19:16:52;102758.87;;;2.71;66.74